createdAt,value
2022-07-29T00:02:04.242Z,63.71
2022-07-29T00:04:31.664Z,63.16
2022-07-29T00:06:59.023Z,63.38
2022-07-29T00:09:26.208Z,63.70
2022-07-29T00:11:53.464Z,64.08
2022-07-29T00:14:24.116Z,64.86
2022-07-29T00:16:51.227Z,65.07
2022-07-29T00:19:18.929Z,64.69
2022-07-29T00:21:46.389Z,65.13
2022-07-29T00:24:13.719Z,65.65
2022-07-29T00:26:41.577Z,65.52
2022-07-29T00:31:56.144Z,66.10
2022-07-29T00:34:41.903Z,66.24
2022-07-29T00:37:09.079Z,66.05
2022-07-29T00:39:36.410Z,66.66
2022-07-29T00:42:05.745Z,66.52
2022-07-29T00:44:39.436Z,66.91
2022-07-29T00:47:07.461Z,66.74
2022-07-29T00:49:35.165Z,66.87
2022-07-29T00:52:06.682Z,66.56
2022-07-29T00:54:34.946Z,66.85
2022-07-29T00:57:02.663Z,67.01
2022-07-29T00:59:35.247Z,67.13
2022-07-29T01:02:04.125Z,67.58
2022-07-29T01:04:32.556Z,67.30
2022-07-29T01:07:01.707Z,67.09
2022-07-29T01:09:43.106Z,67.64
2022-07-29T01:12:18.202Z,67.47
2022-07-29T01:14:46.900Z,67.50
2022-07-29T01:17:37.983Z,67.56
2022-07-29T01:20:31.711Z,67.46
2022-07-29T01:23:08.119Z,66.86
2022-07-29T01:25:59.818Z,67.19
2022-07-29T01:29:07.428Z,67.79
2022-07-29T01:31:41.535Z,67.44
2022-07-29T01:34:49.948Z,67.41
2022-07-29T01:37:34.105Z,67.97
2022-07-29T01:40:05.434Z,67.73
2022-07-29T01:42:41.401Z,67.86
2022-07-29T01:45:17.251Z,67.57
2022-07-29T01:48:07.354Z,68.32
2022-07-29T01:50:44.272Z,67.86
2022-07-29T01:53:13.829Z,68.36
2022-07-29T01:55:45.571Z,68.37
2022-07-29T01:58:15.381Z,68.42
2022-07-29T02:00:45.704Z,68.21
2022-07-29T02:03:15.820Z,68.14
2022-07-29T02:05:47.932Z,68.29
2022-07-29T02:08:20.875Z,68.06
2022-07-29T02:10:49.644Z,67.84
2022-07-29T02:13:19.944Z,67.45
2022-07-29T02:15:48.012Z,67.67
2022-07-29T02:18:18.991Z,67.53
2022-07-29T02:20:50.480Z,66.88
2022-07-29T02:23:21.057Z,67.12
2022-07-29T02:25:54.614Z,66.82
2022-07-29T02:28:25.525Z,66.52
2022-07-29T02:30:54.524Z,66.22
2022-07-29T02:33:23.903Z,66.03
2022-07-29T02:35:52.007Z,65.75
2022-07-29T02:38:39.604Z,65.35
2022-07-29T02:41:15.449Z,64.94
2022-07-29T02:43:44.512Z,64.77
2022-07-29T02:46:28.436Z,64.25
2022-07-29T02:49:03.311Z,63.49
2022-07-29T02:51:43.484Z,63.62
2022-07-29T02:54:27.278Z,63.19
2022-07-29T02:56:58.287Z,63.03
2022-07-29T02:59:28.812Z,62.28
2022-07-29T03:01:57.056Z,61.46
2022-07-29T03:04:27.123Z,61.55
2022-07-29T03:06:54.961Z,61.22
2022-07-29T03:09:24.317Z,60.26
2022-07-29T03:11:55.834Z,60.53
2022-07-29T03:14:24.071Z,60.00
2022-07-29T03:16:53.712Z,59.38
2022-07-29T03:19:21.545Z,59.13
2022-07-29T03:21:49.094Z,58.22
2022-07-29T03:24:36.504Z,57.67
2022-07-29T03:27:05.498Z,56.93
2022-07-29T03:29:34.526Z,56.58
2022-07-29T03:32:08.111Z,56.04
2022-07-29T03:34:37.654Z,55.25
2022-07-29T03:37:07.095Z,55.37
2022-07-29T03:39:41.702Z,54.70
2022-07-29T03:42:11.715Z,54.08
2022-07-29T03:44:42.149Z,53.49
2022-07-29T03:47:11.149Z,52.48
2022-07-29T03:49:39.392Z,52.38
2022-07-29T03:52:07.297Z,51.71
2022-07-29T03:54:34.946Z,51.20
2022-07-29T03:57:07.002Z,49.87
2022-07-29T03:59:35.236Z,48.73
2022-07-29T04:02:04.818Z,47.29
2022-07-29T04:04:35.940Z,45.20
2022-07-29T04:07:04.293Z,43.04
2022-07-29T04:09:31.407Z,41.38
2022-07-29T04:12:02.947Z,39.33
2022-07-29T04:14:33.178Z,38.16
2022-07-29T04:17:01.712Z,36.41
2022-07-29T04:23:56.359Z,32.83
2022-07-29T04:26:23.433Z,31.65
2022-07-29T04:28:50.523Z,31.25
2022-07-29T04:31:19.328Z,30.13
2022-07-29T04:33:49.566Z,29.41
2022-07-29T04:36:28.893Z,28.90
2022-07-29T04:38:56.953Z,28.49
2022-07-29T04:41:23.908Z,28.00
2022-07-29T04:44:02.127Z,27.34
2022-07-29T04:46:29.429Z,26.56
2022-07-29T04:48:56.716Z,25.86
2022-07-29T04:51:31.434Z,25.34
2022-07-29T04:53:58.521Z,24.78
2022-07-29T04:56:25.557Z,24.24
2022-07-29T04:58:52.626Z,23.91
2022-07-29T05:01:20.075Z,23.44
2022-07-29T05:03:47.710Z,23.10
2022-07-29T05:06:15.027Z,22.71
2022-07-29T05:08:42.653Z,22.96
2022-07-29T05:11:11.524Z,21.98
2022-07-29T05:13:45.790Z,21.89
2022-07-29T05:16:15.254Z,21.81
2022-07-29T05:18:51.479Z,21.07
2022-07-29T05:21:18.716Z,20.86
2022-07-29T05:23:46.397Z,20.54
2022-07-29T05:26:13.932Z,20.33
2022-07-29T05:28:41.668Z,20.41
2022-07-29T05:31:11.867Z,19.79
2022-07-29T05:33:47.552Z,19.25
2022-07-29T05:36:17.342Z,18.92
2022-07-29T05:39:00.632Z,18.71
2022-07-29T05:41:34.113Z,18.84
2022-07-29T05:44:02.874Z,19.20
2022-07-29T05:46:33.300Z,19.47
2022-07-29T05:49:32.866Z,19.34
2022-07-29T05:52:00.261Z,18.86
2022-07-29T05:54:27.344Z,18.23
2022-07-29T05:56:54.508Z,17.99
2022-07-29T05:59:21.516Z,16.84
2022-07-29T06:01:48.700Z,18.42
2022-07-29T06:04:15.985Z,18.32
2022-07-29T06:06:43.269Z,19.57
2022-07-29T06:09:12.653Z,18.88
2022-07-29T06:11:40.455Z,18.21
2022-07-29T06:14:07.452Z,17.49
2022-07-29T06:16:34.555Z,17.63
2022-07-29T06:19:01.707Z,16.88
2022-07-29T06:21:28.764Z,16.35
2022-07-29T06:23:56.110Z,16.93
2022-07-29T06:26:30.690Z,16.80
2022-07-29T06:28:58.763Z,18.29
2022-07-29T06:31:25.817Z,17.91
2022-07-29T06:33:54.661Z,16.46
2022-07-29T06:36:25.053Z,16.41
2022-07-29T06:38:52.451Z,16.32
2022-07-29T06:41:20.889Z,15.54
2022-07-29T06:43:52.479Z,14.79
2022-07-29T06:46:23.495Z,14.27
2022-07-29T06:48:58.100Z,14.19
2022-07-29T06:51:25.355Z,15.34
2022-07-29T06:54:00.237Z,16.50
2022-07-29T06:56:38.429Z,17.12
2022-07-29T06:59:10.729Z,15.88
2022-07-29T07:01:38.661Z,16.58
2022-07-29T07:04:06.440Z,17.48
2022-07-29T07:06:33.778Z,17.62
2022-07-29T07:09:00.840Z,17.20
2022-07-29T07:11:30.459Z,16.23
2022-07-29T07:14:02.591Z,16.17
2022-07-29T07:16:30.891Z,16.92
2022-07-29T07:18:57.982Z,18.64
2022-07-29T07:21:25.120Z,19.31
2022-07-29T07:23:52.145Z,17.20
2022-07-29T07:26:19.113Z,16.81
2022-07-29T07:28:46.221Z,17.24
2022-07-29T07:31:13.391Z,16.35
2022-07-29T07:33:40.464Z,15.76
2022-07-29T07:36:07.486Z,17.46
2022-07-29T07:38:34.617Z,18.46
2022-07-29T07:41:02.055Z,19.70
2022-07-29T07:43:29.214Z,19.96
2022-07-29T07:45:56.393Z,18.43
2022-07-29T07:48:23.345Z,19.05
2022-07-29T07:50:51.719Z,18.34
2022-07-29T07:53:18.960Z,16.89
2022-07-29T07:58:33.860Z,18.00
2022-07-29T08:01:01.034Z,16.76
2022-07-29T08:03:28.340Z,16.95
2022-07-29T08:05:55.481Z,17.97
2022-07-29T08:08:22.705Z,19.07
2022-07-29T08:10:57.200Z,19.58
2022-07-29T08:13:28.852Z,18.23
2022-07-29T08:15:59.184Z,19.10
2022-07-29T08:18:27.785Z,20.51
2022-07-29T08:21:02.743Z,21.67
2022-07-29T08:23:47.508Z,20.04
2022-07-29T08:26:16.878Z,17.05
2022-07-29T08:28:50.608Z,18.51
2022-07-29T08:31:20.439Z,18.92
2022-07-29T08:33:47.447Z,19.83
2022-07-29T08:36:14.927Z,21.66
2022-07-29T08:38:42.403Z,21.66
2022-07-29T08:41:09.748Z,22.81
2022-07-29T08:43:38.606Z,23.94
2022-07-29T08:46:05.843Z,24.77
2022-07-29T08:48:34.683Z,25.19
2022-07-29T08:51:03.140Z,22.65
2022-07-29T08:53:32.935Z,21.05
2022-07-29T08:56:00.828Z,19.90
2022-07-29T08:58:32.415Z,19.09
2022-07-29T09:01:04.560Z,18.94
2022-07-29T09:03:40.050Z,19.54
2022-07-29T09:06:07.349Z,20.16
2022-07-29T09:08:35.091Z,22.03
2022-07-29T09:11:05.543Z,22.47
2022-07-29T09:13:33.286Z,22.26
2022-07-29T09:16:02.521Z,22.15
2022-07-29T09:18:39.677Z,21.96
2022-07-29T09:21:27.802Z,23.35
2022-07-29T09:24:05.773Z,23.94
2022-07-29T09:26:34.543Z,24.64
2022-07-29T09:29:11.052Z,25.01
2022-07-29T09:31:40.857Z,25.73
2022-07-29T09:34:09.162Z,25.92
2022-07-29T09:36:47.319Z,26.82
2022-07-29T09:39:19.890Z,27.14
2022-07-29T09:41:50.401Z,27.08
2022-07-29T09:44:17.815Z,26.96
2022-07-29T09:47:07.370Z,26.76
2022-07-29T09:49:36.602Z,26.47
2022-07-29T09:52:08.460Z,26.30
2022-07-29T09:54:40.040Z,27.38
2022-07-29T09:57:10.866Z,28.02
2022-07-29T10:00:11.161Z,28.00
2022-07-29T10:02:44.528Z,28.37
2022-07-29T10:05:25.561Z,27.17
2022-07-29T10:07:57.321Z,26.94
2022-07-29T10:10:28.441Z,27.01
2022-07-29T10:13:12.222Z,26.46
2022-07-29T10:15:46.295Z,26.91
2022-07-29T10:18:18.639Z,25.76
2022-07-29T10:20:48.465Z,26.34
2022-07-29T10:23:15.734Z,27.85
2022-07-29T10:25:46.401Z,27.83
2022-07-29T10:28:16.422Z,28.31
2022-07-29T10:30:45.916Z,27.63
2022-07-29T10:33:50.074Z,28.34
2022-07-29T10:36:25.319Z,27.83
2022-07-29T10:39:10.816Z,28.57
2022-07-29T10:41:57.621Z,28.41
2022-07-29T10:44:26.688Z,26.97
2022-07-29T10:46:54.710Z,27.57
2022-07-29T10:49:27.947Z,28.91
2022-07-29T10:52:05.828Z,28.42
2022-07-29T10:54:44.166Z,28.97
2022-07-29T10:57:26.022Z,28.21
2022-07-29T11:00:11.124Z,29.05
2022-07-29T11:02:43.500Z,28.72
2022-07-29T11:05:14.978Z,28.01
2022-07-29T11:08:20.127Z,29.13
2022-07-29T11:10:49.433Z,28.65
2022-07-29T11:13:44.260Z,29.71
2022-07-29T11:16:11.467Z,29.21
2022-07-29T11:19:14.523Z,29.50
2022-07-29T11:21:55.220Z,29.80
2022-07-29T11:27:28.549Z,30.64
2022-07-29T11:30:03.450Z,30.59
2022-07-29T11:32:40.916Z,31.28
2022-07-29T11:35:19.265Z,31.23
2022-07-29T11:38:23.872Z,31.97
2022-07-29T11:41:27.202Z,31.13
2022-07-29T11:43:59.318Z,31.64
2022-07-29T11:46:50.090Z,30.94
2022-07-29T11:52:14.840Z,31.70
2022-07-29T11:54:58.511Z,30.14
2022-07-29T11:57:36.373Z,30.71
2022-07-29T12:03:05.250Z,31.99
2022-07-29T12:05:36.924Z,31.51
2022-07-29T12:07:03.437Z,31.57
2022-07-29T12:07:03.676Z,30.81
2022-07-29T12:08:14.919Z,30.62
2022-07-29T12:10:43.644Z,30.86
2022-07-29T12:13:11.949Z,30.99
2022-07-29T12:15:47.221Z,31.49
2022-07-29T12:18:19.089Z,31.51
2022-07-29T12:20:47.996Z,31.58
2022-07-29T12:23:17.472Z,31.79
2022-07-29T12:25:49.858Z,31.74
2022-07-29T12:28:26.908Z,32.01
2022-07-29T12:30:59.323Z,31.56
2022-07-29T12:33:32.037Z,31.39
2022-07-29T12:36:12.857Z,31.11
2022-07-29T12:38:45.666Z,31.90
2022-07-29T12:41:13.980Z,32.00
2022-07-29T12:43:54.031Z,33.08
2022-07-29T12:46:21.495Z,31.46
2022-07-29T12:48:56.197Z,32.36
2022-07-29T12:51:49.638Z,32.38
2022-07-29T12:54:19.496Z,32.12
2022-07-29T12:56:46.895Z,31.10
2022-07-29T12:59:19.359Z,31.45
2022-07-29T13:01:49.676Z,30.56
2022-07-29T13:04:55.704Z,31.50
2022-07-29T13:07:54.675Z,32.60
2022-07-29T13:10:24.359Z,32.56
2022-07-29T13:13:12.871Z,32.68
2022-07-29T13:15:43.226Z,32.34
2022-07-29T13:18:33.134Z,32.14
2022-07-29T13:21:12.947Z,31.64
2022-07-29T13:23:40.272Z,32.46
2022-07-29T13:26:17.293Z,31.60
2022-07-29T13:28:44.466Z,32.23
2022-07-29T13:31:11.977Z,32.81
2022-07-29T13:33:39.032Z,33.02
2022-07-29T13:36:06.477Z,33.21
2022-07-29T13:38:35.747Z,34.02
2022-07-29T13:41:03.141Z,34.08
2022-07-29T13:43:30.403Z,34.38
2022-07-29T13:45:59.746Z,34.35
2022-07-29T13:48:26.758Z,33.88
2022-07-29T13:50:53.731Z,34.01
2022-07-29T13:53:27.018Z,34.22
2022-07-29T13:55:54.959Z,35.22
2022-07-29T13:58:21.943Z,34.46
2022-07-29T14:00:49.253Z,33.84
2022-07-29T14:03:16.620Z,33.38
2022-07-29T14:05:43.807Z,32.61
2022-07-29T14:08:11.158Z,33.25
2022-07-29T14:10:38.357Z,33.09
2022-07-29T14:13:05.520Z,33.30
2022-07-29T14:15:48.897Z,33.85
2022-07-29T14:18:15.903Z,33.73
2022-07-29T14:20:42.933Z,34.07
2022-07-29T14:23:10.002Z,33.65
2022-07-29T14:25:37.144Z,33.87
2022-07-29T14:28:08.184Z,35.15
2022-07-29T14:30:35.374Z,33.97
2022-07-29T14:33:04.221Z,33.88
2022-07-29T14:35:31.245Z,33.37
2022-07-29T14:37:58.358Z,33.87
2022-07-29T14:40:26.734Z,33.80
2022-07-29T14:42:53.751Z,33.50
2022-07-29T14:45:20.761Z,33.80
2022-07-29T19:43:51.760Z,55.48
2022-07-29T19:46:24.577Z,55.44
2022-07-29T19:48:53.245Z,56.10
2022-07-29T19:51:20.975Z,55.66
2022-07-29T19:53:49.198Z,55.74
2022-07-29T19:56:16.475Z,55.83
2022-07-29T19:58:44.802Z,55.87
2022-07-29T20:01:23.200Z,55.81
2022-07-29T20:03:55.981Z,55.93
2022-07-29T20:06:23.587Z,56.19
2022-07-29T20:08:58.979Z,56.52
2022-07-29T20:11:37.239Z,56.56
2022-07-29T20:14:05.522Z,57.00
2022-07-29T20:16:32.683Z,56.94
2022-07-29T20:18:59.864Z,57.09
2022-07-29T20:21:26.941Z,57.32
2022-07-29T20:24:01.287Z,57.46
2022-07-29T20:26:28.986Z,57.72
2022-07-29T20:28:56.606Z,58.01
2022-07-29T20:31:25.116Z,57.79
2022-07-29T20:33:52.471Z,58.27
2022-07-29T20:36:23.377Z,58.66
2022-07-29T20:38:52.002Z,58.85
2022-07-29T20:41:19.848Z,58.70
2022-07-29T20:43:53.054Z,59.00
2022-07-29T20:46:20.383Z,58.64
2022-07-29T20:48:50.289Z,58.98
2022-07-29T20:51:17.769Z,59.07
2022-07-29T20:53:45.140Z,59.46
2022-07-29T20:56:13.368Z,59.56
2022-07-29T20:58:46.366Z,59.57
2022-07-29T21:01:17.232Z,59.88
2022-07-29T21:03:47.926Z,59.71
2022-07-29T21:06:16.289Z,59.87
2022-07-29T21:08:44.095Z,60.08
2022-07-29T21:11:14.549Z,60.33
2022-07-29T21:13:41.954Z,60.18
2022-07-29T21:16:14.779Z,60.49
2022-07-29T21:18:46.195Z,60.36
2022-07-29T21:21:15.752Z,60.70
2022-07-29T21:23:44.158Z,60.74
2022-07-29T21:26:13.939Z,60.45
2022-07-29T21:28:40.988Z,60.54
2022-07-29T21:31:14.044Z,60.03
2022-07-29T21:33:43.471Z,59.46
2022-07-29T21:36:44.014Z,59.05
2022-07-29T21:38:59.927Z,59.17
2022-07-29T21:41:27.123Z,58.93
2022-07-29T21:43:55.010Z,59.08
2022-07-29T21:46:25.986Z,58.65
2022-07-29T21:48:53.468Z,59.09
2022-07-29T21:51:21.259Z,58.88
2022-07-29T21:53:48.641Z,58.93
2022-07-29T21:56:15.957Z,59.25
2022-07-29T21:58:45.280Z,59.26
2022-07-29T22:01:12.570Z,59.76
2022-07-29T22:03:40.570Z,60.14
2022-07-29T22:06:08.082Z,59.70
2022-07-29T22:08:40.511Z,59.75
2022-07-29T22:11:09.162Z,60.31
2022-07-29T22:13:37.019Z,60.24
2022-07-29T22:16:04.510Z,60.46
2022-07-29T22:18:36.887Z,60.37
2022-07-29T22:21:14.480Z,60.67
2022-07-29T22:23:45.534Z,60.59
2022-07-29T22:26:13.294Z,60.48
2022-07-29T22:28:40.657Z,60.91
2022-07-29T22:31:08.185Z,60.96
2022-07-29T22:33:35.598Z,61.00
2022-07-29T22:36:05.865Z,61.24
2022-07-29T22:38:33.392Z,61.08
2022-07-29T22:41:01.485Z,61.19
2022-07-29T22:43:30.916Z,60.88
2022-07-29T22:45:58.104Z,61.06
2022-07-29T22:48:25.910Z,61.86
2022-07-29T22:50:53.593Z,61.27
2022-07-29T22:53:21.088Z,61.64
2022-07-29T22:55:48.218Z,61.05
2022-07-29T22:58:15.497Z,60.57
2022-07-29T23:00:45.708Z,60.57
2022-07-29T23:03:13.096Z,60.36
2022-07-29T23:05:41.337Z,60.39
2022-07-29T23:08:08.387Z,60.28
2022-07-29T23:10:35.637Z,60.29
2022-07-29T23:13:02.710Z,60.39
2022-07-29T23:15:29.880Z,60.09
2022-07-29T23:17:59.247Z,60.25
2022-07-29T23:20:26.716Z,60.45
2022-07-29T23:22:53.885Z,60.47
2022-07-29T23:25:21.393Z,60.32
2022-07-29T23:27:51.622Z,59.84
2022-07-29T23:30:18.700Z,60.48
2022-07-29T23:32:46.041Z,60.11
2022-07-29T23:35:13.171Z,60.42
2022-07-29T23:37:40.246Z,60.55
2022-07-29T23:40:13.636Z,60.80
2022-07-29T23:42:42.432Z,60.58
2022-07-29T23:45:11.863Z,60.84
2022-07-29T23:47:39.415Z,61.14
2022-07-29T23:50:07.994Z,61.39
2022-07-29T23:52:35.626Z,60.99
2022-07-29T23:55:37.032Z,60.91
2022-07-29T23:57:50.409Z,61.43
